Date,TemperatureHighF,TemperatureAvgF,TemperatureLowF,DewpointHighF,DewpointAvgF,DewpointLowF,HumidityHigh,HumidityAvg,HumidityLow,PressureMaxIn,PressureMinIn,WindSpeedMaxMPH,WindSpeedAvgMPH,GustSpeedMaxMPH,PrecipitationSumIn
2013-1-1,34.4,27.9,16.1,26.0,16.7,6.0,75,63,54,30.01,29.82,21,7,34,0.00
2013-1-2,27.3,20.5,10.5,17.0,12.0,6.0,84,70,59,30.19,30.00,17,4,23,0.00
2013-1-3,23.9,11.8,-2.9,17.0,5.0,-6.0,88,75,52,30.24,30.06,3,0,7,0.00
2013-1-4,37.4,31.5,20.9,22.0,19.6,17.0,86,62,45,30.07,29.91,20,7,27,0.00
2013-1-5,36.3,30.1,19.0,24.0,21.2,17.0,91,70,58,30.29,29.96,18,4,32,0.00
2013-1-6,45.0,30.4,18.1,29.0,24.8,16.0,93,80,53,30.22,29.98,9,1,17,0.00
2013-1-7,37.8,30.8,15.6,29.0,22.1,14.0,92,72,45,30.42,30.05,15,3,21,0.00
2013-1-8,49.3,24.7,10.9,31.0,19.3,9.0,93,83,43,30.47,30.35,3,0,4,0.00
2013-1-9,47.7,31.4,14.0,37.0,24.3,12.0,93,77,48,30.46,30.13,22,3,39,0.01
2013-1-10,42.4,35.7,23.8,27.0,23.2,20.0,91,62,47,30.61,30.25,30,6,49,0.00
2013-1-11,35.7,29.9,21.7,32.0,26.4,20.0,93,87,67,30.61,30.19,2,0,4,0.10
2013-1-12,52.1,36.8,30.3,46.0,34.0,28.0,93,90,78,30.20,30.14,3,0,5,0.01
2013-1-13,45.5,36.6,30.6,43.0,34.2,28.0,93,91,89,30.16,30.00,3,0,4,0.01
2013-1-14,55.3,41.2,32.9,52.0,33.5,23.0,90,75,52,30.34,29.94,10,3,21,0.06
2013-1-15,37.8,31.1,26.2,25.0,23.3,22.0,86,74,55,30.40,30.26,6,1,14,0.00
2013-1-16,32.5,29.1,25.0,31.0,27.0,23.0,93,91,79,30.28,29.89,0,0,3,0.00
2013-1-17,36.2,30.6,22.7,28.0,22.6,14.0,93,73,61,30.18,29.94,10,1,19,0.01
2013-1-18,23.8,16.4,7.9,14.0,5.7,-2.0,89,64,48,30.50,30.10,15,4,21,0.00
2013-1-19,48.4,28.6,13.0,28.0,20.0,10.0,88,73,37,30.38,29.87,6,1,17,0.00
2013-1-20,46.6,34.9,22.0,31.0,20.4,9.0,85,57,26,30.02,29.63,39,7,39,0.01
2013-1-21,23.5,20.2,14.6,18.0,10.5,5.0,92,67,52,30.08,29.83,15,2,21,0.00
2013-1-22,19.5,12.6,6.4,9.0,-2.9,-8.0,66,51,36,30.21,29.82,15,7,39,0.00
2013-1-23,11.9,5.9,-3.9,-4.0,-5.6,-8.0,86,61,41,30.27,30.18,14,4,20,0.00
2013-1-24,14.8,5.9,-6.3,0.0,-4.7,-10.0,86,64,42,30.43,30.22,25,6,35,0.00
2013-1-25,19.8,13.3,8.3,9.0,2.5,-3.0,89,63,38,30.46,30.10,19,2,22,0.00
2013-1-26,20.8,15.0,8.5,9.0,4.4,1.0,90,64,47,30.38,30.08,18,5,27,0.00
2013-1-27,30.2,21.3,13.4,8.0,4.6,-1.0,78,51,28,30.54,30.37,21,4,27,0.00
2013-1-28,29.3,22.5,12.2,28.0,18.2,7.0,93,84,60,30.52,30.00,3,0,5,0.00
2013-1-29,43.8,35.3,29.7,37.0,32.6,28.0,93,90,78,30.18,29.99,4,0,10,0.25
2013-1-30,54.9,42.0,34.4,53.0,39.3,32.0,93,90,87,30.11,29.40,11,1,17,0.36
2013-1-31,50.3,37.2,24.7,48.0,26.7,8.0,91,68,42,29.71,29.01,31,8,48,0.83